Time;durP1;ratioP1;P1;durP2;ratioP2;P2;SDS_P1;SDS_P2;PMS_P1;PMS_P2;Temp;Humidity;BMP_temperature;BMP_pressure;BME280_temperature;BME280_humidity;BME280_pressure;Samples;Min_cycle;Max_cycle;Signal;HPM_P1;HPM_P2
2024/01/28 00:02:24;;;;;;;;;;;2.10;99.90;;;;;;8456020;28;20279;-74
2024/01/28 00:06:25;;;;;;;;;;;2.00;99.90;;;;;;8454572;28;19924;-75
2024/01/28 00:10:27;;;;;;;;;;;1.90;99.90;;;;;;8450436;28;20393;-74
2024/01/28 00:14:29;;;;;;;;;;;1.90;99.90;;;;;;8455613;28;19924;-75
2024/01/28 00:18:30;;;;;;;;;;;1.80;99.90;;;;;;8454156;28;19924;-74
2024/01/28 00:22:32;;;;;;;;;;;1.80;99.90;;;;;;8434098;28;19967;-75
2024/01/28 00:26:38;;;;;;;;;;;1.70;99.90;;;;;;8433822;28;19924;-74
2024/01/28 00:30:39;;;;;;;;;;;1.60;99.90;;;;;;8451342;28;19972;-74
2024/01/28 00:34:41;;;;;;;;;;;1.50;99.90;;;;;;8461666;28;19954;-75
2024/01/28 00:38:46;;;;;;;;;;;1.40;99.90;;;;;;8439761;27;19931;-74
2024/01/28 00:42:48;;;;;;;;;;;1.40;99.90;;;;;;8457422;28;20354;-74
2024/01/28 00:46:49;;;;;;;;;;;1.40;99.90;;;;;;8440865;28;19931;-74
2024/01/28 00:50:51;;;;;;;;;;;1.40;99.90;;;;;;8460089;28;19977;-74
2024/01/28 00:54:53;;;;;;;;;;;1.30;99.90;;;;;;8439564;28;19924;-74
2024/01/28 00:58:54;;;;;;;;;;;1.30;99.90;;;;;;8459782;28;19924;-74
2024/01/28 01:02:56;;;;;;;;;;;1.20;99.90;;;;;;8441555;28;19976;-74
2024/01/28 01:06:58;;;;;;;;;;;1.20;99.90;;;;;;8459902;28;19928;-74
2024/01/28 01:11:03;;;;;;;;;;;1.20;99.90;;;;;;8440372;28;19927;-74
2024/01/28 01:15:05;;;;;;;;;;;1.30;99.90;;;;;;8439811;28;19985;-74
2024/01/28 01:19:06;;;;;;;;;;;1.20;99.90;;;;;;8459416;28;19923;-75
2024/01/28 01:23:08;;;;;;;;;;;1.20;99.90;;;;;;8460677;28;20036;-74
2024/01/28 01:27:10;;;;;;;;;;;1.30;99.90;;;;;;8430409;28;19931;-74
2024/01/28 01:31:16;;;;;;;;;;;1.30;99.90;;;;;;8457964;28;19924;-74
2024/01/28 01:35:17;;;;;;;;;;;1.30;99.90;;;;;;8456672;28;19927;-74
2024/01/28 01:39:19;;;;;;;;;;;1.30;99.90;;;;;;8439974;28;19923;-74
2024/01/28 01:43:21;;;;;;;;;;;1.40;99.90;;;;;;8458329;28;20465;-74
2024/01/28 01:47:24;;;;;;;;;;;1.40;99.90;;;;;;8457104;28;19952;-74
2024/01/28 01:51:26;;;;;;;;;;;1.40;99.90;;;;;;8457506;28;19924;-74
2024/01/28 01:55:28;;;;;;;;;;;1.40;99.90;;;;;;8455672;28;20359;-73
2024/01/28 01:59:30;;;;;;;;;;;1.50;99.90;;;;;;8457829;28;19924;-74
2024/01/28 02:03:32;;;;;;;;;;;1.50;99.90;;;;;;8440575;28;19924;-73
2024/01/28 02:07:33;;;;;;;;;;;1.50;99.90;;;;;;8456508;27;20287;-74
2024/01/28 02:11:35;;;;;;;;;;;1.50;99.90;;;;;;8457633;28;19923;-75
2024/01/28 02:15:38;;;;;;;;;;;1.40;99.90;;;;;;8457460;28;20432;-74
2024/01/28 02:19:40;;;;;;;;;;;1.40;99.90;;;;;;8457423;28;19924;-74
2024/01/28 02:23:41;;;;;;;;;;;1.40;99.90;;;;;;8457369;28;19923;-74
2024/01/28 02:27:46;;;;;;;;;;;1.40;99.90;;;;;;8432929;28;20495;-74
2024/01/28 02:31:48;;;;;;;;;;;1.40;99.90;;;;;;8456256;28;19963;-74
2024/01/28 02:35:49;;;;;;;;;;;1.40;99.90;;;;;;8453224;28;19931;-74
2024/01/28 02:39:51;;;;;;;;;;;1.40;99.90;;;;;;8455602;28;19924;-74
2024/01/28 02:43:54;;;;;;;;;;;1.40;99.90;;;;;;8453943;28;19928;-74
2024/01/28 02:53:00;;;;;;;;;;;1.50;99.90;;;;;;8454953;28;20339;-74
2024/01/28 02:57:01;;;;;;;;;;;1.40;99.90;;;;;;8452772;28;19946;-74
2024/01/28 03:01:03;;;;;;;;;;;1.40;99.90;;;;;;8456081;28;21466;-74
2024/01/28 03:05:08;;;;;;;;;;;1.40;99.90;;;;;;8456499;28;19931;-74
2024/01/28 03:09:10;;;;;;;;;;;1.40;99.90;;;;;;8450752;28;19924;-74
2024/01/28 03:13:12;;;;;;;;;;;1.40;99.90;;;;;;8456687;28;19928;-73
2024/01/28 03:17:13;;;;;;;;;;;1.30;99.90;;;;;;8453880;28;19940;-74
2024/01/28 03:21:15;;;;;;;;;;;1.30;99.90;;;;;;8454507;28;19984;-74
2024/01/28 03:25:17;;;;;;;;;;;1.30;99.90;;;;;;8452180;28;19975;-73
2024/01/28 03:34:26;;;;;;;;;;;1.20;99.90;;;;;;8454222;28;20286;-74
2024/01/28 03:38:28;;;;;;;;;;;1.20;99.90;;;;;;8434346;28;19930;-74
2024/01/28 03:47:33;;;;;;;;;;;1.10;99.90;;;;;;8453161;28;19969;-74
2024/01/28 03:51:35;;;;;;;;;;;1.10;99.90;;;;;;8455567;28;19928;-74
2024/01/28 03:55:36;;;;;;;;;;;1.10;99.90;;;;;;8454610;28;20290;-75
2024/01/28 03:59:39;;;;;;;;;;;1.10;99.90;;;;;;8452440;28;19973;-74
2024/01/28 04:03:41;;;;;;;;;;;1.10;99.90;;;;;;8438142;28;20295;-74
2024/01/28 04:07:43;;;;;;;;;;;1.00;99.90;;;;;;8460409;28;19978;-74
2024/01/28 04:11:45;;;;;;;;;;;1.00;99.90;;;;;;8461917;28;19959;-74
2024/01/28 04:15:46;;;;;;;;;;;1.00;99.90;;;;;;8442944;28;19927;-74
2024/01/28 04:19:48;;;;;;;;;;;1.00;99.90;;;;;;8458247;27;19928;-74
2024/01/28 04:23:51;;;;;;;;;;;0.90;99.90;;;;;;8462887;28;19935;-74
2024/01/28 04:27:53;;;;;;;;;;;1.00;99.90;;;;;;8445323;28;19924;-74
2024/01/28 04:31:55;;;;;;;;;;;1.00;99.90;;;;;;8439757;28;19977;-73
2024/01/28 04:35:57;;;;;;;;;;;1.00;99.90;;;;;;8442636;28;20264;-74
2024/01/28 04:39:59;;;;;;;;;;;1.00;99.90;;;;;;8456985;28;19923;-74
2024/01/28 04:44:01;;;;;;;;;;;1.00;99.90;;;;;;8466312;27;20019;-73
2024/01/28 04:48:03;;;;;;;;;;;0.90;99.90;;;;;;8459443;28;20260;-73
2024/01/28 04:52:05;;;;;;;;;;;0.90;99.90;;;;;;8458522;28;19924;-73
2024/01/28 04:56:09;;;;;;;;;;;0.90;99.90;;;;;;8459733;28;19923;-73
2024/01/28 05:00:11;;;;;;;;;;;0.90;99.90;;;;;;8454327;28;19927;-73
2024/01/28 05:04:13;;;;;;;;;;;0.90;99.90;;;;;;8440541;28;19963;-73
2024/01/28 05:08:15;;;;;;;;;;;0.90;99.90;;;;;;8459188;28;19932;-74
2024/01/28 05:12:19;;;;;;;;;;;0.90;99.90;;;;;;8455696;27;20335;-74
2024/01/28 05:16:21;;;;;;;;;;;0.90;99.90;;;;;;8459550;28;19931;-73
2024/01/28 05:20:22;;;;;;;;;;;0.90;99.90;;;;;;8457301;28;20385;-74
2024/01/28 05:24:24;;;;;;;;;;;0.90;99.90;;;;;;8457631;27;19927;-74
2024/01/28 05:28:26;;;;;;;;;;;0.90;99.90;;;;;;8450787;28;20477;-73
2024/01/28 05:32:28;;;;;;;;;;;0.90;99.90;;;;;;8456894;28;19924;-74
2024/01/28 05:36:30;;;;;;;;;;;0.90;99.90;;;;;;8459497;28;19923;-74
2024/01/28 05:40:31;;;;;;;;;;;0.90;99.90;;;;;;8437341;28;20336;-73
2024/01/28 05:44:33;;;;;;;;;;;0.80;99.90;;;;;;8458017;28;19924;-74
2024/01/28 05:48:35;;;;;;;;;;;0.80;99.90;;;;;;8460462;28;19923;-73
2024/01/28 05:52:37;;;;;;;;;;;0.80;99.90;;;;;;8434942;28;19979;-73
2024/01/28 05:56:38;;;;;;;;;;;0.80;99.90;;;;;;8433792;28;20287;-74
2024/01/28 06:00:40;;;;;;;;;;;0.80;99.90;;;;;;8454388;28;19977;-74
2024/01/28 06:04:42;;;;;;;;;;;0.80;99.90;;;;;;8453751;27;19975;-74
2024/01/28 06:08:44;;;;;;;;;;;0.80;99.90;;;;;;8456733;27;19935;-74
2024/01/28 06:17:49;;;;;;;;;;;0.80;99.90;;;;;;8455380;28;20279;-74
2024/01/28 06:21:51;;;;;;;;;;;0.80;99.90;;;;;;8455092;28;20003;-73
2024/01/28 06:25:53;;;;;;;;;;;0.80;99.90;;;;;;8436969;27;20293;-74
2024/01/28 06:29:55;;;;;;;;;;;0.80;99.90;;;;;;8450658;27;20516;-74
2024/01/28 06:33:57;;;;;;;;;;;0.80;99.90;;;;;;8418571;27;20454;-74
2024/01/28 06:37:59;;;;;;;;;;;0.80;99.90;;;;;;8424813;28;19930;-74
2024/01/28 06:42:01;;;;;;;;;;;0.80;99.90;;;;;;8426099;27;20635;-74
2024/01/28 06:46:03;;;;;;;;;;;0.80;99.90;;;;;;8458059;28;20295;-73
2024/01/28 06:50:05;;;;;;;;;;;0.80;99.90;;;;;;8454812;27;19924;-73
2024/01/28 06:54:07;;;;;;;;;;;0.90;99.90;;;;;;8451330;27;19931;-73
2024/01/28 06:58:09;;;;;;;;;;;0.80;99.90;;;;;;8457185;27;20681;-74
2024/01/28 07:02:11;;;;;;;;;;;0.80;99.90;;;;;;8461417;27;20385;-74
2024/01/28 07:06:16;;;;;;;;;;;0.80;99.90;;;;;;8442826;27;19927;-73
2024/01/28 07:10:17;;;;;;;;;;;0.90;99.90;;;;;;8453048;27;20336;-73
2024/01/28 07:14:19;;;;;;;;;;;0.90;99.90;;;;;;8477591;27;19923;-74
2024/01/28 07:18:21;;;;;;;;;;;0.90;99.90;;;;;;8451808;28;19930;-74
2024/01/28 07:22:22;;;;;;;;;;;0.90;99.90;;;;;;8441878;28;20268;-74
2024/01/28 07:26:25;;;;;;;;;;;0.80;99.90;;;;;;8452052;28;20313;-74
2024/01/28 07:30:27;;;;;;;;;;;0.80;99.90;;;;;;8433812;28;20345;-74
2024/01/28 07:34:29;;;;;;;;;;;0.80;99.90;;;;;;8458779;28;19923;-74
2024/01/28 07:38:31;;;;;;;;;;;0.80;99.90;;;;;;8458149;28;19927;-74
2024/01/28 07:42:32;;;;;;;;;;;0.80;99.90;;;;;;8463563;27;19953;-74
2024/01/28 07:46:34;;;;;;;;;;;0.80;99.90;;;;;;8442112;28;19924;-74
2024/01/28 07:50:36;;;;;;;;;;;0.80;99.90;;;;;;8460619;28;20264;-74
2024/01/28 07:54:37;;;;;;;;;;;0.80;99.90;;;;;;8459906;28;20378;-74
2024/01/28 07:58:39;;;;;;;;;;;0.80;99.90;;;;;;8456938;28;19977;-74
2024/01/28 08:02:41;;;;;;;;;;;0.80;99.90;;;;;;8457841;27;19924;-74
2024/01/28 08:06:43;;;;;;;;;;;0.80;99.90;;;;;;8461517;27;19965;-73
2024/01/28 08:10:44;;;;;;;;;;;0.90;99.90;;;;;;8427518;28;19962;-74
2024/01/28 08:14:46;;;;;;;;;;;0.90;99.90;;;;;;8436837;28;19930;-74
2024/01/28 08:18:50;;;;;;;;;;;1.00;99.90;;;;;;8440000;28;19988;-74
2024/01/28 08:22:52;;;;;;;;;;;1.10;99.90;;;;;;8453709;28;20267;-73
2024/01/28 08:26:53;;;;;;;;;;;1.20;99.90;;;;;;8436796;28;20279;-74
2024/01/28 08:30:55;;;;;;;;;;;1.20;99.90;;;;;;8452605;27;20341;-74
2024/01/28 08:34:57;;;;;;;;;;;1.30;99.90;;;;;;8448047;27;19927;-74
2024/01/28 08:38:59;;;;;;;;;;;1.40;99.90;;;;;;8448458;27;19981;-74
2024/01/28 08:43:04;;;;;;;;;;;1.50;99.90;;;;;;8447977;28;19974;-73
2024/01/28 08:47:05;;;;;;;;;;;1.60;99.90;;;;;;8447884;28;20329;-74
2024/01/28 08:51:07;;;;;;;;;;;1.70;99.90;;;;;;8430086;27;19927;-74
2024/01/28 08:55:09;;;;;;;;;;;1.80;99.90;;;;;;8437986;27;19945;-73
2024/01/28 08:59:11;;;;;;;;;;;2.00;99.90;;;;;;8434382;27;19924;-73
2024/01/28 09:03:13;;;;;;;;;;;2.00;99.90;;;;;;8440066;27;19959;-73
2024/01/28 09:07:15;;;;;;;;;;;2.10;99.90;;;;;;8448216;28;20006;-73
2024/01/28 09:11:17;;;;;;;;;;;2.30;99.90;;;;;;8457137;27;19928;-73
2024/01/28 09:15:19;;;;;;;;;;;2.40;99.90;;;;;;8457359;27;19932;-73
2024/01/28 09:19:20;;;;;;;;;;;2.50;99.90;;;;;;8472650;27;19970;-73
2024/01/28 09:23:22;;;;;;;;;;;2.60;99.90;;;;;;8441307;27;19974;-73
2024/01/28 09:27:24;;;;;;;;;;;2.90;99.90;;;;;;8462584;27;19969;-73
2024/01/28 09:31:25;;;;;;;;;;;3.20;99.90;;;;;;8470280;27;19924;-73
2024/01/28 09:35:27;;;;;;;;;;;3.60;99.90;;;;;;8471623;27;20282;-73
2024/01/28 09:39:31;;;;;;;;;;;4.00;99.90;;;;;;8469640;27;20374;-73
2024/01/28 09:43:34;;;;;;;;;;;4.40;99.90;;;;;;8465454;27;19923;-73
2024/01/28 09:47:37;;;;;;;;;;;4.70;99.90;;;;;;8443168;27;19919;-73
2024/01/28 09:51:39;;;;;;;;;;;4.90;99.90;;;;;;8438102;27;19954;-73
2024/01/28 09:55:41;;;;;;;;;;;4.90;99.90;;;;;;8468894;27;19919;-73
2024/01/28 09:59:43;;;;;;;;;;;4.90;99.90;;;;;;8461959;27;19920;-73
2024/01/28 10:03:45;;;;;;;;;;;4.90;99.90;;;;;;8439204;27;19919;-73
2024/01/28 10:07:48;;;;;;;;;;;4.90;99.90;;;;;;8445829;27;19928;-73
2024/01/28 10:11:51;;;;;;;;;;;5.00;99.90;;;;;;8454816;28;19924;-73
2024/01/28 10:15:56;;;;;;;;;;;5.10;99.90;;;;;;8455240;28;19934;-73
2024/01/28 10:19:58;;;;;;;;;;;5.20;99.90;;;;;;8436784;28;19933;-73
2024/01/28 10:23:59;;;;;;;;;;;5.50;99.90;;;;;;8454530;28;19931;-74
2024/01/28 10:28:02;;;;;;;;;;;5.80;99.90;;;;;;8449870;28;19919;-74
2024/01/28 10:32:04;;;;;;;;;;;6.20;99.90;;;;;;8454497;28;20389;-74
2024/01/28 10:36:08;;;;;;;;;;;6.40;99.90;;;;;;8458480;28;19927;-73
2024/01/28 10:40:11;;;;;;;;;;;6.60;99.90;;;;;;8454119;28;19924;-73
2024/01/28 10:44:14;;;;;;;;;;;6.80;99.90;;;;;;8456452;28;20337;-74
2024/01/28 10:48:17;;;;;;;;;;;7.10;99.90;;;;;;8434825;28;19923;-74
2024/01/28 10:52:21;;;;;;;;;;;7.20;99.90;;;;;;8457912;28;19920;-73
2024/01/28 10:56:23;;;;;;;;;;;7.50;99.90;;;;;;8454841;28;19920;-74
2024/01/28 11:00:26;;;;;;;;;;;8.00;99.90;;;;;;8437728;28;19927;-73
2024/01/28 11:04:28;;;;;;;;;;;8.40;99.90;;;;;;8455501;28;19920;-74
2024/01/28 11:08:30;;;;;;;;;;;8.80;99.90;;;;;;8453997;28;20402;-74
2024/01/28 11:12:32;;;;;;;;;;;9.20;99.90;;;;;;8457262;28;19920;-73
2024/01/28 11:16:35;;;;;;;;;;;9.80;99.90;;;;;;8437167;28;19920;-74
2024/01/28 11:20:37;;;;;;;;;;;10.30;99.90;;;;;;8439555;28;19950;-73
2024/01/28 11:24:52;;;;;;;;;;;10.90;99.90;;;;;;8449068;28;20314;-74
2024/01/28 11:28:54;;;;;;;;;;;11.40;99.90;;;;;;8435879;28;19920;-74
2024/01/28 11:33:06;;;;;;;;;;;12.00;99.90;;;;;;8437777;28;19919;-74
2024/01/28 11:37:12;;;;;;;;;;;12.40;99.90;;;;;;8441979;28;19924;-74
2024/01/28 11:41:15;;;;;;;;;;;12.80;99.90;;;;;;8435867;28;19960;-74
2024/01/28 11:45:17;;;;;;;;;;;13.10;99.90;;;;;;8441104;28;19920;-74
2024/01/28 11:49:19;;;;;;;;;;;13.40;99.90;;;;;;8448426;28;20452;-74
2024/01/28 11:53:20;;;;;;;;;;;13.90;99.90;;;;;;8420460;28;19924;-74
2024/01/28 11:57:22;;;;;;;;;;;14.30;99.90;;;;;;8442913;28;19935;-74
2024/01/28 12:01:24;;;;;;;;;;;14.70;99.90;;;;;;8422298;28;19924;-74
2024/01/28 12:05:26;;;;;;;;;;;15.00;99.90;;;;;;8452874;28;19951;-74
2024/01/28 12:09:29;;;;;;;;;;;15.40;99.90;;;;;;8450000;28;19965;-74
2024/01/28 12:13:31;;;;;;;;;;;15.60;99.90;;;;;;8434587;28;20387;-74
2024/01/28 12:17:37;;;;;;;;;;;15.80;99.90;;;;;;8454985;28;19920;-74
2024/01/28 12:21:39;;;;;;;;;;;15.90;99.90;;;;;;8438296;28;19919;-74
2024/01/28 12:25:41;;;;;;;;;;;16.00;99.90;;;;;;8451944;28;19924;-74
2024/01/28 12:29:43;;;;;;;;;;;15.70;99.90;;;;;;8423850;28;19989;-74
2024/01/28 12:33:45;;;;;;;;;;;15.50;99.90;;;;;;8429572;27;20626;-74
2024/01/28 12:37:47;;;;;;;;;;;15.40;99.90;;;;;;8445099;28;21535;-74
2024/01/28 12:41:49;;;;;;;;;;;15.60;99.90;;;;;;8425433;28;19926;-74
2024/01/28 12:45:51;;;;;;;;;;;15.60;99.90;;;;;;8426394;28;20399;-74
2024/01/28 12:49:53;;;;;;;;;;;15.60;99.90;;;;;;8430222;28;19935;-74
2024/01/28 12:53:54;;;;;;;;;;;15.70;99.90;;;;;;8442856;28;19924;-74
2024/01/28 12:57:56;;;;;;;;;;;15.40;99.90;;;;;;8444106;28;19919;-74
2024/01/28 13:01:58;;;;;;;;;;;14.90;99.90;;;;;;8428214;28;19937;-75
2024/01/28 13:06:00;;;;;;;;;;;14.80;99.90;;;;;;8428250;28;19965;-74
2024/01/28 13:10:03;;;;;;;;;;;15.10;99.90;;;;;;8442060;28;20482;-74
2024/01/28 13:14:04;;;;;;;;;;;15.50;99.90;;;;;;8441288;28;19934;-74
2024/01/28 13:18:06;;;;;;;;;;;16.10;99.90;;;;;;8439880;28;20028;-74
2024/01/28 13:22:21;;;;;;;;;;;16.50;99.90;;;;;;8437321;28;20303;-74
2024/01/28 13:26:22;;;;;;;;;;;16.90;99.90;;;;;;8440202;28;19924;-74
2024/01/28 13:30:24;;;;;;;;;;;17.10;99.90;;;;;;8429441;28;19928;-75
2024/01/28 13:34:26;;;;;;;;;;;16.90;99.90;;;;;;8423522;28;20356;-75
2024/01/28 13:38:28;;;;;;;;;;;16.30;99.90;;;;;;8422357;28;19968;-75
2024/01/28 13:42:30;;;;;;;;;;;15.50;99.90;;;;;;8441184;28;19920;-75
2024/01/28 13:46:32;;;;;;;;;;;14.70;99.90;;;;;;8438530;28;20081;-75
2024/01/28 13:50:34;;;;;;;;;;;14.00;99.90;;;;;;8443520;28;20420;-75
2024/01/28 13:54:35;;;;;;;;;;;13.50;99.90;;;;;;8444012;28;19924;-75
2024/01/28 13:58:37;;;;;;;;;;;13.10;99.90;;;;;;8442998;28;19919;-75
2024/01/28 14:02:41;;;;;;;;;;;12.80;99.90;;;;;;8445146;28;19927;-75
2024/01/28 14:06:43;;;;;;;;;;;12.60;99.90;;;;;;8428913;28;19973;-75
2024/01/28 14:10:45;;;;;;;;;;;12.40;99.90;;;;;;8427385;28;19927;-75
2024/01/28 14:14:46;;;;;;;;;;;12.40;99.90;;;;;;8439829;28;19928;-75
2024/01/28 14:18:48;;;;;;;;;;;12.40;99.90;;;;;;8423395;28;19928;-74
2024/01/28 14:22:50;;;;;;;;;;;12.30;99.90;;;;;;8436058;28;19963;-75
2024/01/28 14:26:51;;;;;;;;;;;12.10;99.90;;;;;;8417734;28;19928;-75
2024/01/28 14:30:53;;;;;;;;;;;12.00;99.90;;;;;;8428800;28;19967;-75
2024/01/28 14:34:55;;;;;;;;;;;12.00;99.90;;;;;;8410340;28;20014;-75
2024/01/28 14:38:57;;;;;;;;;;;11.90;99.90;;;;;;8433007;28;19928;-75
2024/01/28 14:42:59;;;;;;;;;;;11.80;99.90;;;;;;8431086;28;19920;-75
2024/01/28 14:47:01;;;;;;;;;;;11.80;99.90;;;;;;8426367;28;19930;-75
2024/01/28 14:51:05;;;;;;;;;;;11.90;99.90;;;;;;8434911;28;19974;-75
2024/01/28 14:55:07;;;;;;;;;;;12.10;99.90;;;;;;8441255;28;19930;-75
2024/01/28 14:59:08;;;;;;;;;;;12.70;99.90;;;;;;8423353;28;20459;-75
2024/01/28 15:03:10;;;;;;;;;;;13.20;99.90;;;;;;8420862;28;20439;-75
2024/01/28 15:07:13;;;;;;;;;;;13.30;99.90;;;;;;8440846;28;19924;-75
2024/01/28 15:11:14;;;;;;;;;;;13.30;99.90;;;;;;8439588;28;19923;-75
2024/01/28 15:15:16;;;;;;;;;;;13.00;99.90;;;;;;8437066;28;19931;-75
2024/01/28 15:19:18;;;;;;;;;;;12.70;99.90;;;;;;8439605;28;19965;-74
2024/01/28 15:23:20;;;;;;;;;;;12.30;99.90;;;;;;8438601;28;20379;-74
2024/01/28 15:27:22;;;;;;;;;;;11.90;99.90;;;;;;8440645;28;19935;-75
2024/01/28 15:31:23;;;;;;;;;;;11.60;99.90;;;;;;8437596;28;20367;-75
2024/01/28 15:35:25;;;;;;;;;;;11.40;99.90;;;;;;8442190;28;20043;-75
2024/01/28 15:39:27;;;;;;;;;;;11.20;99.90;;;;;;8440407;28;20268;-75
2024/01/28 15:43:29;;;;;;;;;;;11.10;99.90;;;;;;8439180;28;19919;-75
2024/01/28 15:47:30;;;;;;;;;;;10.90;99.90;;;;;;8439404;28;19924;-75
2024/01/28 15:51:32;;;;;;;;;;;10.70;99.90;;;;;;8438598;28;19923;-75
2024/01/28 15:55:35;;;;;;;;;;;10.60;99.90;;;;;;8423234;28;19928;-75
2024/01/28 15:59:38;;;;;;;;;;;10.40;99.90;;;;;;8424158;28;19924;-74
2024/01/28 16:03:40;;;;;;;;;;;10.30;99.90;;;;;;8429066;28;20688;-74
2024/01/28 16:07:42;;;;;;;;;;;10.10;99.90;;;;;;8446467;28;20383;-75
2024/01/28 16:11:44;;;;;;;;;;;10.00;99.90;;;;;;8447806;28;19920;-75
2024/01/28 16:15:46;;;;;;;;;;;10.00;99.90;;;;;;8443364;28;20428;-75
2024/01/28 16:19:47;;;;;;;;;;;9.80;99.90;;;;;;8443192;28;19988;-75
2024/01/28 16:23:49;;;;;;;;;;;9.70;99.90;;;;;;8444368;28;19926;-75
2024/01/28 16:27:51;;;;;;;;;;;9.60;99.90;;;;;;8443307;28;19932;-75
2024/01/28 16:31:53;;;;;;;;;;;9.50;99.90;;;;;;8442050;28;19930;-74
2024/01/28 16:35:54;;;;;;;;;;;9.40;99.90;;;;;;8441509;28;19927;-74
2024/01/28 16:39:56;;;;;;;;;;;9.40;99.90;;;;;;8431773;28;19966;-75
2024/01/28 16:43:58;;;;;;;;;;;9.30;99.90;;;;;;8430051;28;19920;-75
2024/01/28 16:47:59;;;;;;;;;;;9.30;99.90;;;;;;8424436;28;19919;-75
2024/01/28 16:52:02;;;;;;;;;;;9.20;99.90;;;;;;8434602;28;20283;-75
2024/01/28 16:56:04;;;;;;;;;;;9.10;99.90;;;;;;8415397;28;19920;-75
2024/01/28 17:00:06;;;;;;;;;;;9.10;99.90;;;;;;8421527;27;19970;-75
2024/01/28 17:04:07;;;;;;;;;;;9.00;99.90;;;;;;8434910;27;19920;-75
2024/01/28 17:08:09;;;;;;;;;;;8.90;99.90;;;;;;8429673;28;19981;-75
2024/01/28 17:12:14;;;;;;;;;;;8.90;99.90;;;;;;8431147;28;20420;-75
2024/01/28 17:16:16;;;;;;;;;;;8.80;99.90;;;;;;8419991;28;19966;-75
2024/01/28 17:20:18;;;;;;;;;;;8.70;99.90;;;;;;8429782;28;19977;-75
2024/01/28 17:24:21;;;;;;;;;;;8.70;99.90;;;;;;8432014;27;19957;-75
2024/01/28 17:28:23;;;;;;;;;;;8.70;99.90;;;;;;8433291;28;20050;-75
2024/01/28 17:32:25;;;;;;;;;;;8.60;99.90;;;;;;8414783;28;20011;-75
2024/01/28 17:36:28;;;;;;;;;;;8.50;99.90;;;;;;8428331;28;19920;-74
2024/01/28 17:40:30;;;;;;;;;;;8.40;99.90;;;;;;8431307;28;19920;-75
2024/01/28 17:44:32;;;;;;;;;;;8.40;99.90;;;;;;8429717;28;19920;-75
2024/01/28 17:48:37;;;;;;;;;;;8.40;99.90;;;;;;8436759;28;19920;-74
2024/01/28 17:52:39;;;;;;;;;;;8.30;99.90;;;;;;8418846;27;19924;-75
2024/01/28 17:56:40;;;;;;;;;;;8.30;99.90;;;;;;8410371;28;20287;-75
2024/01/28 18:00:42;;;;;;;;;;;8.20;99.90;;;;;;8429571;28;20393;-75
2024/01/28 18:04:44;;;;;;;;;;;8.20;99.90;;;;;;8433339;27;19926;-75
2024/01/28 18:08:46;;;;;;;;;;;8.20;99.90;;;;;;8412129;28;19923;-75
2024/01/28 18:12:47;;;;;;;;;;;8.10;99.90;;;;;;8445059;28;20425;-74
2024/01/28 18:16:49;;;;;;;;;;;8.10;99.90;;;;;;8425859;28;20275;-74
2024/01/28 18:20:51;;;;;;;;;;;8.00;99.90;;;;;;8427012;28;19928;-74
2024/01/28 18:24:52;;;;;;;;;;;8.00;99.90;;;;;;8424022;28;20022;-74
2024/01/28 18:28:54;;;;;;;;;;;8.00;99.90;;;;;;8425197;28;20429;-75
2024/01/28 18:32:56;;;;;;;;;;;7.90;99.90;;;;;;8431766;28;19924;-75
2024/01/28 18:36:58;;;;;;;;;;;7.90;99.90;;;;;;8429982;28;19931;-75
2024/01/28 18:41:01;;;;;;;;;;;7.90;99.90;;;;;;8424887;27;20011;-74
2024/01/28 18:45:03;;;;;;;;;;;7.80;99.90;;;;;;8420445;28;19927;-75
2024/01/28 18:49:05;;;;;;;;;;;7.80;99.90;;;;;;8427220;28;19977;-75
2024/01/28 18:53:13;;;;;;;;;;;7.70;99.90;;;;;;8426983;28;19920;-75
2024/01/28 18:57:15;;;;;;;;;;;7.70;99.90;;;;;;8429295;28;19920;-75
2024/01/28 19:01:18;;;;;;;;;;;7.70;99.90;;;;;;8408758;28;20363;-75
2024/01/28 19:05:20;;;;;;;;;;;7.60;99.90;;;;;;8417328;28;19989;-75
2024/01/28 19:09:22;;;;;;;;;;;7.60;99.90;;;;;;8413775;28;20313;-75
2024/01/28 19:13:26;;;;;;;;;;;7.60;99.90;;;;;;8409505;28;19928;-75
2024/01/28 19:17:28;;;;;;;;;;;7.50;99.90;;;;;;8426932;28;19919;-75
2024/01/28 19:21:30;;;;;;;;;;;7.50;99.90;;;;;;8428685;28;19931;-74
2024/01/28 19:25:32;;;;;;;;;;;7.40;99.90;;;;;;8426626;28;19973;-75
2024/01/28 19:29:34;;;;;;;;;;;7.30;99.90;;;;;;8435166;28;20327;-74
2024/01/28 19:33:35;;;;;;;;;;;7.30;99.90;;;;;;8418643;28;20402;-75
2024/01/28 19:37:37;;;;;;;;;;;7.30;99.90;;;;;;8435030;28;20249;-75
2024/01/28 19:41:39;;;;;;;;;;;7.20;99.90;;;;;;8437092;28;19931;-75
2024/01/28 19:45:40;;;;;;;;;;;7.20;99.90;;;;;;8425161;28;19931;-74
2024/01/28 19:49:42;;;;;;;;;;;7.10;99.90;;;;;;8429342;28;20340;-75
2024/01/28 19:53:44;;;;;;;;;;;7.10;99.90;;;;;;8416604;28;19927;-74
2024/01/28 19:57:46;;;;;;;;;;;7.00;99.90;;;;;;8413772;28;20352;-74
2024/01/28 20:01:48;;;;;;;;;;;7.00;99.90;;;;;;8432552;28;20007;-75
2024/01/28 20:05:50;;;;;;;;;;;7.00;99.90;;;;;;8415620;28;20383;-74
2024/01/28 20:09:59;;;;;;;;;;;6.90;99.90;;;;;;8436178;28;19935;-75
2024/01/28 20:14:02;;;;;;;;;;;6.80;99.90;;;;;;8424661;28;20308;-75
2024/01/28 20:23:01;;;;;;;;;;;6.70;99.90;;;;;;8434498;28;19930;-75
2024/01/28 20:27:02;;;;;;;;;;;6.60;99.90;;;;;;8437707;28;19924;-75
2024/01/28 20:31:04;;;;;;;;;;;6.60;99.90;;;;;;8423243;28;19927;-75
2024/01/28 20:35:10;;;;;;;;;;;6.60;99.90;;;;;;8415667;28;19924;-74
2024/01/28 20:39:12;;;;;;;;;;;6.60;99.90;;;;;;8427894;28;19927;-75
2024/01/28 20:43:14;;;;;;;;;;;6.60;99.90;;;;;;8425359;28;20890;-74
2024/01/28 20:47:16;;;;;;;;;;;6.60;99.90;;;;;;8425645;28;19920;-74
2024/01/28 20:51:18;;;;;;;;;;;6.60;99.90;;;;;;8428301;28;19920;-74
2024/01/28 20:55:20;;;;;;;;;;;6.60;99.90;;;;;;8408311;28;19928;-74
2024/01/28 20:59:22;;;;;;;;;;;6.60;99.90;;;;;;8439891;27;19920;-75
2024/01/28 21:03:23;;;;;;;;;;;6.50;99.90;;;;;;8428950;28;19967;-75
2024/01/28 21:07:25;;;;;;;;;;;6.50;99.90;;;;;;8428446;28;19923;-74
2024/01/28 21:11:27;;;;;;;;;;;6.50;99.90;;;;;;8431402;28;19930;-75
2024/01/28 21:15:29;;;;;;;;;;;6.50;99.90;;;;;;8425787;28;19966;-75
2024/01/28 21:19:30;;;;;;;;;;;6.50;99.90;;;;;;8426086;28;19973;-75
2024/01/28 21:23:32;;;;;;;;;;;6.50;99.90;;;;;;8427556;28;19923;-74
2024/01/28 21:27:35;;;;;;;;;;;6.50;99.90;;;;;;8425546;28;19924;-74
2024/01/28 21:31:39;;;;;;;;;;;6.40;99.90;;;;;;8427288;28;19919;-74
2024/01/28 21:35:41;;;;;;;;;;;6.40;99.90;;;;;;8425675;28;19923;-74
2024/01/28 21:39:42;;;;;;;;;;;6.30;99.90;;;;;;8428298;28;20358;-74
2024/01/28 21:43:45;;;;;;;;;;;6.30;99.90;;;;;;8427112;28;19993;-74
2024/01/28 21:47:47;;;;;;;;;;;6.20;99.90;;;;;;8411388;28;19981;-74
2024/01/28 21:51:49;;;;;;;;;;;6.10;99.90;;;;;;8447563;27;20202;-74
2024/01/28 21:55:52;;;;;;;;;;;6.10;99.90;;;;;;8369338;28;20299;-74
2024/01/28 21:59:54;;;;;;;;;;;6.10;99.90;;;;;;8372533;28;19931;-74
2024/01/28 22:03:56;;;;;;;;;;;6.00;99.90;;;;;;8384230;28;19928;-74
2024/01/28 22:07:58;;;;;;;;;;;6.00;99.90;;;;;;8387682;28;19920;-74
2024/01/28 22:11:59;;;;;;;;;;;6.00;99.90;;;;;;8392039;28;19927;-75
2024/01/28 22:16:04;;;;;;;;;;;6.00;99.90;;;;;;8383374;28;19921;-74
2024/01/28 22:20:06;;;;;;;;;;;6.00;99.90;;;;;;8393467;28;19927;-74
2024/01/28 22:24:08;;;;;;;;;;;6.00;99.90;;;;;;8393510;28;19921;-74
2024/01/28 22:28:10;;;;;;;;;;;6.00;99.90;;;;;;8375093;28;19977;-75
2024/01/28 22:32:12;;;;;;;;;;;6.00;99.90;;;;;;8391241;28;19935;-74
2024/01/28 22:36:15;;;;;;;;;;;6.00;99.90;;;;;;8390746;28;19921;-75
2024/01/28 22:40:18;;;;;;;;;;;6.00;99.90;;;;;;8388140;28;20268;-74
2024/01/28 22:44:20;;;;;;;;;;;6.10;99.90;;;;;;8389424;28;19974;-74
2024/01/28 22:48:22;;;;;;;;;;;6.10;99.90;;;;;;8389621;28;19920;-74
2024/01/28 22:52:24;;;;;;;;;;;6.10;99.90;;;;;;8392390;28;19920;-74
2024/01/28 22:56:26;;;;;;;;;;;6.10;99.90;;;;;;8457740;28;19965;-75
2024/01/28 23:00:32;;;;;;;;;;;6.10;99.90;;;;;;8456628;28;19977;-74
2024/01/28 23:04:34;;;;;;;;;;;6.00;99.90;;;;;;8435466;28;20382;-74
2024/01/28 23:08:35;;;;;;;;;;;6.00;99.90;;;;;;8432556;28;19933;-74
2024/01/28 23:12:37;;;;;;;;;;;6.00;99.90;;;;;;8460603;28;19942;-74
2024/01/28 23:16:39;;;;;;;;;;;6.00;99.90;;;;;;8456177;28;19926;-74
2024/01/28 23:20:41;;;;;;;;;;;6.00;99.90;;;;;;8454461;28;19943;-74
2024/01/28 23:24:43;;;;;;;;;;;6.00;99.90;;;;;;8458146;28;19969;-73
2024/01/28 23:28:44;;;;;;;;;;;5.90;99.90;;;;;;8450167;28;19928;-73
2024/01/28 23:32:46;;;;;;;;;;;5.90;99.90;;;;;;8456710;28;20362;-74
2024/01/28 23:36:48;;;;;;;;;;;5.90;99.90;;;;;;8458394;28;19972;-74
2024/01/28 23:40:50;;;;;;;;;;;5.80;99.90;;;;;;8440559;28;19919;-74
2024/01/28 23:44:52;;;;;;;;;;;5.80;99.90;;;;;;8457319;28;19920;-74
2024/01/28 23:48:54;;;;;;;;;;;5.70;99.90;;;;;;8457057;28;19969;-74
2024/01/28 23:52:56;;;;;;;;;;;5.70;99.90;;;;;;8446549;28;19923;-74
2024/01/28 23:56:58;;;;;;;;;;;5.70;99.90;;;;;;8430881;28;19919;-74
